createdAt,value
2019-05-15T00:01:08.782Z,6.70
2019-05-15T00:03:39.082Z,6.60
2019-05-15T00:06:08.674Z,6.50
2019-05-15T00:08:38.666Z,6.50
2019-05-15T00:11:08.454Z,6.40
2019-05-15T00:13:38.840Z,6.40
2019-05-15T00:16:08.571Z,6.30
2019-05-15T00:18:39.083Z,6.20
2019-05-15T00:21:09.266Z,6.10
2019-05-15T00:23:39.111Z,6.00
2019-05-15T00:26:09.280Z,5.90
2019-05-15T00:28:38.943Z,5.80
2019-05-15T00:31:09.027Z,5.60
2019-05-15T00:33:39.393Z,5.50
2019-05-15T00:36:08.685Z,5.40
2019-05-15T00:38:38.994Z,5.30
2019-05-15T00:41:09.363Z,5.20
2019-05-15T00:43:38.914Z,5.10
2019-05-15T00:46:09.245Z,5.00
2019-05-15T00:48:39.863Z,5.00
2019-05-15T00:51:08.999Z,5.00
2019-05-15T00:53:38.996Z,4.90
2019-05-15T00:56:08.845Z,4.80
2019-05-15T00:58:39.947Z,4.70
2019-05-15T01:01:08.504Z,4.60
2019-05-15T01:03:38.796Z,4.60
2019-05-15T01:06:08.442Z,4.60
2019-05-15T01:08:39.261Z,4.50
2019-05-15T01:11:09.210Z,4.40
2019-05-15T01:13:38.914Z,4.30
2019-05-15T01:16:09.115Z,4.30
2019-05-15T01:18:38.624Z,4.20
2019-05-15T01:21:08.483Z,4.20
2019-05-15T01:23:39.046Z,4.10
2019-05-15T01:26:08.466Z,4.00
2019-05-15T01:28:38.389Z,4.00
2019-05-15T01:31:08.569Z,3.90
2019-05-15T01:33:39.200Z,3.80
2019-05-15T01:36:08.607Z,3.80
2019-05-15T01:38:38.850Z,3.70
2019-05-15T01:41:09.749Z,3.70
2019-05-15T01:43:39.194Z,3.60
2019-05-15T01:46:08.659Z,3.60
2019-05-15T01:48:38.894Z,3.50
2019-05-15T01:51:09.322Z,3.50
2019-05-15T01:53:38.622Z,3.40
2019-05-15T01:56:08.394Z,3.40
2019-05-15T01:58:38.158Z,3.30
2019-05-15T02:01:08.161Z,3.30
2019-05-15T02:03:38.517Z,3.30
2019-05-15T02:06:08.279Z,3.20
2019-05-15T02:08:39.326Z,3.20
2019-05-15T02:11:09.111Z,3.10
2019-05-15T02:13:38.990Z,3.10
2019-05-15T02:16:08.480Z,3.00
2019-05-15T02:18:39.246Z,3.00
2019-05-15T02:21:10.320Z,3.00
2019-05-15T02:23:39.965Z,2.90
2019-05-15T02:26:08.821Z,2.90
2019-05-15T02:28:38.441Z,2.80
2019-05-15T02:31:10.438Z,2.80
2019-05-15T02:33:40.020Z,2.70
2019-05-15T02:36:09.885Z,2.60
2019-05-15T02:38:41.029Z,2.60
2019-05-15T02:41:10.270Z,2.50
2019-05-15T02:43:39.484Z,2.50
2019-05-15T02:46:10.176Z,2.50
2019-05-15T02:48:41.066Z,2.50
2019-05-15T02:51:10.025Z,2.40
2019-05-15T02:53:39.822Z,2.40
2019-05-15T02:56:09.526Z,2.40
2019-05-15T02:58:39.735Z,2.40
2019-05-15T03:01:09.468Z,2.40
2019-05-15T03:03:39.202Z,2.40
2019-05-15T03:06:10.009Z,2.30
2019-05-15T03:08:39.793Z,2.30
2019-05-15T03:11:09.911Z,2.20
2019-05-15T03:13:39.512Z,2.20
2019-05-15T03:16:10.174Z,2.20
2019-05-15T03:18:40.033Z,2.20
2019-05-15T03:21:10.028Z,2.10
2019-05-15T03:23:40.540Z,2.10
2019-05-15T03:26:09.721Z,2.10
2019-05-15T03:28:39.531Z,2.10
2019-05-15T03:31:35.054Z,2.00
2019-05-15T03:33:45.758Z,2.00
2019-05-15T03:36:13.514Z,1.90
2019-05-15T03:38:40.762Z,1.90
2019-05-15T03:41:10.343Z,1.80
2019-05-15T03:43:39.649Z,1.80
2019-05-15T03:46:09.313Z,1.80
2019-05-15T03:48:40.348Z,1.70
2019-05-15T03:51:09.536Z,1.70
2019-05-15T03:53:39.903Z,1.70
2019-05-15T03:56:09.946Z,1.80
2019-05-15T03:58:40.087Z,1.80
2019-05-15T04:01:27.826Z,1.80
2019-05-15T04:03:40.140Z,1.80
2019-05-15T04:06:10.013Z,1.90
2019-05-15T04:08:39.698Z,1.90
2019-05-15T04:11:09.455Z,1.90
2019-05-15T04:13:39.783Z,1.90
2019-05-15T04:16:10.279Z,1.90
2019-05-15T04:18:39.791Z,2.00
2019-05-15T04:21:09.391Z,2.00
2019-05-15T04:23:39.456Z,2.00
2019-05-15T04:26:09.676Z,2.00
2019-05-15T04:28:41.562Z,2.10
2019-05-15T04:31:11.277Z,2.10
2019-05-15T04:33:40.409Z,2.20
2019-05-15T04:36:09.970Z,2.20
2019-05-15T04:38:39.429Z,2.30
2019-05-15T04:41:09.869Z,2.40
2019-05-15T04:43:44.771Z,2.40
2019-05-15T04:46:10.128Z,2.50
2019-05-15T04:48:39.848Z,2.60
2019-05-15T04:51:09.810Z,2.60
2019-05-15T04:53:39.931Z,2.70
2019-05-15T04:56:09.623Z,2.70
2019-05-15T04:58:39.478Z,2.80
2019-05-15T05:01:09.500Z,2.90
2019-05-15T05:03:39.642Z,3.00
2019-05-15T05:06:09.889Z,3.10
2019-05-15T05:08:40.063Z,3.20
2019-05-15T05:11:09.910Z,3.30
2019-05-15T05:13:39.419Z,3.40
2019-05-15T05:16:09.455Z,3.60
2019-05-15T05:18:41.136Z,3.70
2019-05-15T05:21:09.193Z,3.80
2019-05-15T05:23:38.463Z,3.90
2019-05-15T05:26:10.869Z,4.10
2019-05-15T05:28:38.078Z,4.20
2019-05-15T05:31:08.455Z,4.30
2019-05-15T05:33:38.200Z,4.40
2019-05-15T05:36:07.887Z,4.50
2019-05-15T05:38:38.751Z,4.60
2019-05-15T05:41:08.333Z,4.70
2019-05-15T05:43:38.318Z,4.90
2019-05-15T05:46:09.230Z,5.00
2019-05-15T05:48:38.513Z,5.10
2019-05-15T05:51:09.318Z,5.30
2019-05-15T05:53:38.581Z,5.40
2019-05-15T05:56:08.917Z,5.50
2019-05-15T05:58:39.059Z,5.80
2019-05-15T06:01:09.270Z,5.80
2019-05-15T06:03:38.817Z,6.00
2019-05-15T06:06:09.705Z,6.10
2019-05-15T06:08:39.019Z,6.30
2019-05-15T06:11:09.687Z,6.40
2019-05-15T06:13:38.784Z,6.50
2019-05-15T06:16:08.487Z,6.70
2019-05-15T06:18:38.847Z,6.80
2019-05-15T06:21:09.086Z,6.90
2019-05-15T06:23:44.721Z,7.10
2019-05-15T06:26:09.507Z,7.40
2019-05-15T06:28:39.424Z,7.50
2019-05-15T06:31:08.960Z,7.80
2019-05-15T06:33:38.567Z,8.00
2019-05-15T06:36:09.016Z,8.50
2019-05-15T06:38:39.257Z,9.10
2019-05-15T06:41:08.926Z,9.60
2019-05-15T06:43:38.917Z,10.20
2019-05-15T06:46:09.134Z,10.80
2019-05-15T06:48:38.236Z,11.40
2019-05-15T06:51:08.926Z,11.70
2019-05-15T06:53:38.435Z,11.90
2019-05-15T06:56:08.111Z,12.00
2019-05-15T06:58:38.556Z,12.30
2019-05-15T07:01:08.710Z,12.30
2019-05-15T07:03:39.305Z,12.30
2019-05-15T07:06:09.482Z,12.40
2019-05-15T07:08:38.613Z,12.60
2019-05-15T07:11:08.707Z,12.80
2019-05-15T07:13:38.389Z,13.00
2019-05-15T07:16:08.066Z,13.20
2019-05-15T07:18:39.161Z,13.30
2019-05-15T07:21:10.172Z,13.40
2019-05-15T07:23:39.199Z,13.60
2019-05-15T07:26:09.500Z,13.80
2019-05-15T07:28:38.686Z,14.00
2019-05-15T07:31:11.254Z,14.40
2019-05-15T07:33:43.130Z,14.70
2019-05-15T07:36:08.949Z,14.90
2019-05-15T07:38:39.101Z,14.90
2019-05-15T07:41:10.253Z,14.90
2019-05-15T07:43:38.694Z,15.00
2019-05-15T07:46:08.578Z,15.10
2019-05-15T07:48:38.407Z,15.00
2019-05-15T07:51:11.619Z,15.10
2019-05-15T07:53:38.678Z,15.20
2019-05-15T07:56:11.634Z,15.40
2019-05-15T07:58:38.794Z,15.60
2019-05-15T08:01:09.951Z,15.70
2019-05-15T08:03:53.841Z,15.80
2019-05-15T08:06:09.156Z,16.10
2019-05-15T08:08:39.304Z,16.20
2019-05-15T08:11:20.332Z,16.50
2019-05-15T08:13:39.276Z,16.60
2019-05-15T08:16:08.608Z,16.80
2019-05-15T08:18:39.409Z,17.00
2019-05-15T08:21:09.113Z,16.90
2019-05-15T08:23:39.111Z,16.80
2019-05-15T08:26:08.742Z,16.70
2019-05-15T08:28:38.317Z,16.70
2019-05-15T08:31:10.075Z,16.70
2019-05-15T08:33:38.984Z,16.60
2019-05-15T08:36:08.507Z,16.80
2019-05-15T08:38:38.396Z,16.80
2019-05-15T08:41:11.121Z,16.80
2019-05-15T08:43:38.446Z,16.70
2019-05-15T08:46:08.284Z,16.80
2019-05-15T08:48:38.395Z,16.90
2019-05-15T08:51:08.711Z,16.80
2019-05-15T08:53:38.284Z,16.60
2019-05-15T08:56:08.437Z,16.60
2019-05-15T08:58:38.161Z,16.60
2019-05-15T09:01:09.749Z,16.70
2019-05-15T09:03:38.922Z,16.80
2019-05-15T09:06:09.077Z,17.00
2019-05-15T09:08:39.071Z,16.90
2019-05-15T09:11:09.127Z,17.10
2019-05-15T09:13:43.412Z,17.40
2019-05-15T09:16:09.041Z,17.70
2019-05-15T09:18:39.188Z,17.80
2019-05-15T09:21:08.965Z,17.80
2019-05-15T09:23:38.911Z,17.80
2019-05-15T09:26:09.369Z,18.00
2019-05-15T09:28:39.057Z,18.00
2019-05-15T09:31:08.629Z,17.90
2019-05-15T09:33:38.720Z,18.00
2019-05-15T09:36:09.058Z,18.10
2019-05-15T09:38:39.152Z,17.90
2019-05-15T09:41:09.150Z,17.70
2019-05-15T09:43:38.890Z,17.30
2019-05-15T09:46:10.419Z,17.10
2019-05-15T09:48:42.207Z,17.20
2019-05-15T09:51:11.436Z,17.40
2019-05-15T09:53:40.391Z,17.60
2019-05-15T09:56:09.253Z,18.10
2019-05-15T09:58:38.364Z,18.50
2019-05-15T10:01:08.554Z,18.60
2019-05-15T10:03:39.616Z,18.80
2019-05-15T10:06:08.620Z,19.40
2019-05-15T10:08:39.706Z,19.80
2019-05-15T10:11:09.303Z,19.50
2019-05-15T10:13:38.717Z,19.40
2019-05-15T10:16:08.576Z,19.10
2019-05-15T10:18:38.986Z,19.10
2019-05-15T10:21:09.150Z,19.30
2019-05-15T10:23:40.313Z,19.10
2019-05-15T10:26:13.711Z,18.30
2019-05-15T10:28:40.134Z,17.80
2019-05-15T10:31:09.527Z,17.70
2019-05-15T10:33:39.387Z,17.50
2019-05-15T10:36:08.680Z,17.30
2019-05-15T10:38:39.140Z,17.30
2019-05-15T10:41:11.246Z,17.20
2019-05-15T10:43:46.467Z,17.00
2019-05-15T10:46:13.115Z,16.80
2019-05-15T10:48:40.082Z,16.30
2019-05-15T10:51:10.280Z,15.90
2019-05-15T10:53:39.413Z,16.10
2019-05-15T10:56:09.113Z,16.80
2019-05-15T10:58:39.169Z,17.00
2019-05-15T11:01:11.182Z,16.80
2019-05-15T11:03:40.072Z,16.40
2019-05-15T11:06:09.318Z,16.50
2019-05-15T11:08:40.513Z,17.20
2019-05-15T11:11:09.438Z,17.70
2019-05-15T11:13:38.421Z,17.70
2019-05-15T11:16:07.616Z,17.20
2019-05-15T11:18:39.215Z,16.80
2019-05-15T11:23:39.529Z,16.90
2019-05-15T11:26:08.754Z,17.60
2019-05-15T11:28:39.127Z,18.30
2019-05-15T11:31:10.358Z,18.90
2019-05-15T11:33:39.197Z,19.10
2019-05-15T11:36:08.115Z,19.00
2019-05-15T11:38:38.153Z,18.80
2019-05-15T11:41:08.731Z,18.60
2019-05-15T11:43:38.537Z,18.60
2019-05-15T11:46:09.978Z,18.10
2019-05-15T11:48:39.300Z,17.50
2019-05-15T11:51:09.460Z,17.10
2019-05-15T11:53:39.733Z,16.80
2019-05-15T11:56:09.663Z,16.70
2019-05-15T11:58:39.082Z,16.70
2019-05-15T12:01:08.652Z,17.20
2019-05-15T12:03:38.568Z,18.10
2019-05-15T12:06:18.626Z,18.90
2019-05-15T12:08:38.719Z,19.70
2019-05-15T12:11:11.820Z,20.10
2019-05-15T12:13:38.317Z,19.50
2019-05-15T12:16:07.472Z,18.90
2019-05-15T12:18:38.882Z,18.40
2019-05-15T12:23:38.161Z,17.80
2019-05-15T12:26:09.004Z,17.70
2019-05-15T12:28:40.242Z,17.30
2019-05-15T12:31:08.966Z,16.90
2019-05-15T12:33:38.588Z,16.70
2019-05-15T12:36:10.590Z,16.90
2019-05-15T12:38:39.731Z,17.20
2019-05-15T13:01:18.208Z,18.00
2019-05-15T13:03:45.914Z,17.90
2019-05-15T13:06:14.713Z,18.20
2019-05-15T13:08:43.509Z,18.80
2019-05-15T13:11:15.234Z,19.40
2019-05-15T13:13:43.297Z,20.30
2019-05-15T13:16:12.118Z,20.90
2019-05-15T13:18:40.897Z,20.90
2019-05-15T13:21:10.161Z,20.20
2019-05-15T13:23:38.977Z,19.50
2019-05-15T13:26:21.478Z,19.20
2019-05-15T13:28:38.905Z,18.90
2019-05-15T13:31:09.166Z,18.70
2019-05-15T13:33:38.735Z,18.40
2019-05-15T13:36:08.985Z,17.90
2019-05-15T13:38:38.247Z,17.40
2019-05-15T13:41:09.478Z,17.10
2019-05-15T13:43:38.685Z,16.90
2019-05-15T13:46:08.803Z,16.90
2019-05-15T13:48:38.569Z,16.90
2019-05-15T13:51:09.092Z,16.90
2019-05-15T13:53:38.654Z,16.90
2019-05-15T13:56:07.734Z,17.00
2019-05-15T13:58:38.847Z,17.00
2019-05-15T14:01:09.388Z,17.20
2019-05-15T14:03:39.043Z,17.30
2019-05-15T14:06:09.256Z,17.40
2019-05-15T14:08:39.272Z,17.30
2019-05-15T14:11:08.841Z,17.20
2019-05-15T14:13:39.195Z,17.10
2019-05-15T14:16:09.711Z,16.90
2019-05-15T14:18:39.139Z,16.70
2019-05-15T14:21:09.035Z,16.80
2019-05-15T14:23:38.341Z,17.00
2019-05-15T14:26:18.079Z,17.50
2019-05-15T14:28:58.681Z,17.60
2019-05-15T14:31:28.511Z,17.50
2019-05-15T14:33:58.072Z,17.40
2019-05-15T14:36:28.727Z,17.20
2019-05-15T14:38:58.731Z,17.00
2019-05-15T14:41:29.269Z,16.70
2019-05-15T14:44:11.993Z,16.60
2019-05-15T14:46:29.022Z,16.60
2019-05-15T14:48:58.311Z,16.80
2019-05-15T14:51:28.493Z,16.90
2019-05-15T14:53:58.351Z,16.90
2019-05-15T14:56:27.442Z,16.70
2019-05-15T14:58:58.453Z,16.50
2019-05-15T15:01:26.883Z,16.30
2019-05-15T15:03:58.002Z,16.20
2019-05-15T15:06:26.621Z,16.20
2019-05-15T15:08:55.789Z,16.20
2019-05-15T15:11:24.789Z,16.30
2019-05-15T15:13:53.657Z,16.40
2019-05-15T15:16:22.451Z,16.60
2019-05-15T15:18:51.245Z,16.80
2019-05-15T15:21:22.693Z,17.00
2019-05-15T15:23:50.989Z,17.20
2019-05-15T15:26:19.773Z,18.20
2019-05-15T15:28:49.049Z,19.10
2019-05-15T15:31:19.131Z,19.30
2019-05-15T15:33:48.657Z,19.10
2019-05-15T15:36:17.666Z,18.90
2019-05-15T15:38:48.451Z,18.60
2019-05-15T15:41:17.638Z,18.10
2019-05-15T15:43:48.487Z,17.70
2019-05-15T15:46:24.658Z,17.40
2019-05-15T15:48:52.517Z,17.20
2019-05-15T15:51:21.484Z,17.00
2019-05-15T15:53:50.381Z,17.00
2019-05-15T15:56:19.861Z,16.70
2019-05-15T15:58:49.303Z,16.40
2019-05-15T16:01:18.617Z,16.30
2019-05-15T16:03:48.365Z,16.20
2019-05-15T16:06:18.777Z,16.20
2019-05-15T16:08:55.612Z,16.10
2019-05-15T16:11:21.594Z,16.00
2019-05-15T16:13:50.484Z,15.90
2019-05-15T16:16:19.344Z,15.70
2019-05-15T16:18:49.135Z,15.60
2019-05-15T16:21:19.276Z,15.50
2019-05-15T16:23:48.330Z,15.40
2019-05-15T16:26:19.313Z,15.30
2019-05-15T16:28:48.929Z,15.20
2019-05-15T16:31:18.604Z,15.10
2019-05-15T16:33:48.132Z,15.00
2019-05-15T16:36:18.300Z,14.90
2019-05-15T16:38:48.220Z,14.80
2019-05-15T16:41:19.419Z,14.80
2019-05-15T16:43:48.666Z,14.80
2019-05-15T16:46:19.254Z,14.70
2019-05-15T16:48:49.471Z,14.70
2019-05-15T16:51:18.753Z,14.70
2019-05-15T16:53:48.890Z,14.70
2019-05-15T16:56:18.967Z,14.60
2019-05-15T16:58:48.178Z,14.50
2019-05-15T17:01:18.757Z,14.50
2019-05-15T17:03:48.486Z,14.50
2019-05-15T17:06:18.619Z,14.50
2019-05-15T17:08:48.760Z,14.50
2019-05-15T17:11:19.923Z,14.50
2019-05-15T17:13:48.566Z,14.40
2019-05-15T17:16:18.774Z,14.30
2019-05-15T17:18:48.619Z,14.30
2019-05-15T17:21:19.024Z,14.20
2019-05-15T17:23:49.031Z,14.10
2019-05-15T17:26:18.950Z,14.00
2019-05-15T17:28:48.008Z,14.00
2019-05-15T17:31:18.127Z,13.90
2019-05-15T17:33:48.968Z,13.90
2019-05-15T17:36:18.556Z,13.90
2019-05-15T17:38:48.724Z,13.90
2019-05-15T17:41:18.115Z,13.90
2019-05-15T17:43:48.613Z,13.80
2019-05-15T17:46:17.596Z,13.80
2019-05-15T17:48:54.041Z,13.70
2019-05-15T17:51:17.749Z,13.60
2019-05-15T17:53:48.832Z,13.50
2019-05-15T17:56:17.784Z,13.50
2019-05-15T17:58:48.731Z,13.40
2019-05-15T18:01:19.243Z,13.30
2019-05-15T18:03:48.675Z,13.20
2019-05-15T18:06:18.019Z,13.10
2019-05-15T18:08:48.574Z,12.90
2019-05-15T18:11:18.728Z,12.80
2019-05-15T18:13:48.702Z,12.70
2019-05-15T18:16:18.263Z,12.60
2019-05-15T18:18:47.883Z,12.50
2019-05-15T18:21:18.399Z,12.40
2019-05-15T18:23:48.641Z,12.30
2019-05-15T18:26:18.321Z,12.20
2019-05-15T18:28:48.928Z,12.10
2019-05-15T18:31:19.212Z,12.00
2019-05-15T18:33:54.498Z,11.90
2019-05-15T18:36:34.233Z,11.90
2019-05-15T18:39:28.365Z,11.90
2019-05-15T18:42:29.077Z,11.80
2019-05-15T18:45:21.492Z,11.70
2019-05-15T18:47:52.221Z,11.60
2019-05-15T18:50:21.478Z,11.40
2019-05-15T18:52:50.595Z,11.30
2019-05-15T18:55:19.919Z,11.20
2019-05-15T18:57:54.301Z,11.10
2019-05-15T19:00:20.969Z,10.90
2019-05-15T19:02:50.178Z,10.80
2019-05-15T19:05:19.058Z,10.70
2019-05-15T19:07:48.705Z,10.70
2019-05-15T19:10:19.270Z,10.70
2019-05-15T19:12:48.538Z,10.60
2019-05-15T19:15:18.994Z,10.60
2019-05-15T19:17:48.044Z,10.60
2019-05-15T19:20:18.982Z,10.60
2019-05-15T19:22:48.914Z,10.60
2019-05-15T19:25:18.233Z,10.50
2019-05-15T19:27:47.677Z,10.50
2019-05-15T19:30:19.101Z,10.40
2019-05-15T19:33:11.713Z,10.30
2019-05-15T19:35:41.041Z,10.20
2019-05-15T19:38:11.228Z,10.10
2019-05-15T19:40:40.189Z,10.10
2019-05-15T19:43:09.323Z,10.00
2019-05-15T19:45:40.651Z,9.90
2019-05-15T19:48:09.409Z,9.90
2019-05-15T19:50:38.894Z,9.80
2019-05-15T19:53:11.756Z,9.70
2019-05-15T19:55:41.038Z,9.60
2019-05-15T19:58:09.866Z,9.60
2019-05-15T20:00:39.094Z,9.60
2019-05-15T20:03:08.497Z,9.60
2019-05-15T20:05:38.107Z,9.50
2019-05-15T20:08:07.796Z,9.50
2019-05-15T20:10:39.196Z,9.50
2019-05-15T20:13:07.554Z,9.50
2019-05-15T20:15:37.982Z,9.40
2019-05-15T20:18:07.910Z,9.40
2019-05-15T20:20:38.621Z,9.30
2019-05-15T20:23:08.544Z,9.30
2019-05-15T20:25:38.313Z,9.20
2019-05-15T20:28:08.469Z,9.10
2019-05-15T20:30:38.924Z,9.00
2019-05-15T20:33:08.923Z,9.00
2019-05-15T20:35:38.598Z,8.90
2019-05-15T20:38:07.677Z,8.90
2019-05-15T20:40:36.929Z,8.90
2019-05-15T20:43:07.976Z,8.80
2019-05-15T20:45:36.701Z,8.70
2019-05-15T20:48:05.636Z,8.70
2019-05-15T20:50:34.886Z,8.70
2019-05-15T20:53:03.822Z,8.60
2019-05-15T20:55:32.661Z,8.60
2019-05-15T20:58:01.451Z,8.50
2019-05-15T21:00:30.600Z,8.40
2019-05-15T21:02:59.473Z,8.20
2019-05-15T21:05:28.316Z,8.10
2019-05-15T21:07:57.405Z,8.00
2019-05-15T21:10:26.256Z,7.90
2019-05-15T21:15:21.113Z,7.80
2019-05-15T21:17:57.451Z,7.60
2019-05-15T21:20:19.085Z,7.50
2019-05-15T21:22:49.268Z,7.50
2019-05-15T21:25:19.783Z,7.50
2019-05-15T21:27:49.130Z,7.50
2019-05-15T21:30:19.257Z,7.50
2019-05-15T21:32:49.422Z,7.50
2019-05-15T21:35:18.816Z,7.50
2019-05-15T21:37:49.017Z,7.50
2019-05-15T21:40:18.182Z,7.50
2019-05-15T21:42:49.204Z,7.60
2019-05-15T21:45:18.627Z,7.60
2019-05-15T21:47:47.508Z,7.60
2019-05-15T21:50:19.031Z,7.50
2019-05-15T21:52:49.421Z,7.50
2019-05-15T21:55:18.930Z,7.40
2019-05-15T21:57:47.963Z,7.40
2019-05-15T22:00:28.943Z,7.40
2019-05-15T22:02:58.573Z,7.40
2019-05-15T22:05:28.312Z,7.40
2019-05-15T22:07:58.756Z,7.40
2019-05-15T22:10:28.765Z,7.40
2019-05-15T22:12:59.076Z,7.40
2019-05-15T22:15:28.859Z,7.40
2019-05-15T22:17:57.792Z,7.40
2019-05-15T22:20:29.899Z,7.50
2019-05-15T22:22:59.592Z,7.50
2019-05-15T22:25:28.211Z,7.50
2019-05-15T22:27:58.010Z,7.50
2019-05-15T22:30:29.910Z,7.40
2019-05-15T22:32:58.782Z,7.30
2019-05-15T22:35:29.427Z,7.10
2019-05-15T22:37:58.700Z,7.00
2019-05-15T22:40:28.957Z,6.80
2019-05-15T22:42:59.190Z,6.70
2019-05-15T22:45:28.841Z,6.60
2019-05-15T22:47:58.548Z,6.40
2019-05-15T22:50:28.357Z,6.40
2019-05-15T22:52:58.629Z,6.30
2019-05-15T22:55:29.032Z,6.10
2019-05-15T22:57:58.583Z,6.00
2019-05-15T23:00:29.096Z,6.00
2019-05-15T23:02:58.393Z,5.80
2019-05-15T23:05:29.317Z,5.80
2019-05-15T23:07:59.003Z,5.60
2019-05-15T23:10:29.330Z,5.50
2019-05-15T23:12:58.369Z,5.50
2019-05-15T23:15:28.096Z,5.40
2019-05-15T23:17:58.265Z,5.30
2019-05-15T23:20:28.548Z,5.30
2019-05-15T23:22:58.641Z,5.20
2019-05-15T23:25:29.049Z,5.20
2019-05-15T23:27:58.470Z,5.20
2019-05-15T23:30:28.860Z,5.20
2019-05-15T23:32:58.291Z,5.10
2019-05-15T23:35:37.310Z,5.10
2019-05-15T23:37:58.501Z,5.10
2019-05-15T23:40:28.807Z,4.90
2019-05-15T23:42:57.816Z,4.90
2019-05-15T23:45:28.771Z,4.70
2019-05-15T23:47:57.994Z,4.80
2019-05-15T23:50:28.885Z,4.70
2019-05-15T23:52:58.497Z,4.70
2019-05-15T23:55:28.511Z,4.70
2019-05-15T23:57:58.426Z,4.70
